Time;durP1;ratioP1;P1;durP2;ratioP2;P2;SDS_P1;SDS_P2;PMS_P1;PMS_P2;Temp;Humidity;BMP_temperature;BMP_pressure;BME280_temperature;BME280_humidity;BME280_pressure;Samples;Min_cycle;Max_cycle;Signal;HPM_P1;HPM_P2
2023/03/11 00:00:42;;;;;;;3.78;1.48;;;3.70;99.90;;;;;;6150960;28;20051;-78
2023/03/11 00:03:44;;;;;;;2.10;1.27;;;3.70;99.90;;;;;;6143020;29;20047;-78
2023/03/11 00:06:46;;;;;;;1.00;0.90;;;3.80;99.90;;;;;;6142818;29;20040;-78
2023/03/11 00:09:49;;;;;;;2.38;1.10;;;3.80;99.90;;;;;;6142359;29;20054;-78
2023/03/11 00:12:50;;;;;;;1.95;1.40;;;3.90;99.90;;;;;;6142453;28;20055;-78
2023/03/11 00:15:55;;;;;;;1.45;1.30;;;4.00;99.90;;;;;;6142539;28;20054;-78
2023/03/11 00:18:56;;;;;;;2.50;1.35;;;4.00;99.90;;;;;;6142777;28;20054;-77
2023/03/11 00:21:58;;;;;;;2.75;2.25;;;4.00;99.90;;;;;;6140841;29;20502;-77
2023/03/11 00:25:01;;;;;;;2.60;1.40;;;3.90;99.90;;;;;;6157997;28;20053;-78
2023/03/11 00:28:04;;;;;;;3.42;1.95;;;3.90;99.90;;;;;;6166568;28;20042;-77
2023/03/11 00:31:06;;;;;;;3.53;2.50;;;3.80;99.90;;;;;;6165781;28;20125;-77
2023/03/11 00:34:08;;;;;;;2.55;1.77;;;3.70;99.90;;;;;;6165216;28;20058;-77
2023/03/11 00:37:09;;;;;;;3.30;2.05;;;3.70;99.90;;;;;;6165563;28;20050;-78
2023/03/11 00:40:15;;;;;;;7.35;2.50;;;3.60;99.90;;;;;;6165532;28;20042;-77
2023/03/11 00:43:17;;;;;;;2.70;1.92;;;3.60;99.90;;;;;;6165814;28;20057;-79
2023/03/11 00:46:19;;;;;;;2.22;2.03;;;3.50;99.90;;;;;;6165321;28;20071;-78
2023/03/11 00:49:21;;;;;;;3.60;1.92;;;3.50;99.90;;;;;;6165883;28;20497;-78
2023/03/11 00:52:22;;;;;;;3.60;1.98;;;3.40;99.90;;;;;;6165361;28;20054;-78
2023/03/11 00:55:28;;;;;;;3.03;2.38;;;3.40;99.90;;;;;;6163870;28;20047;-78
2023/03/11 00:58:31;;;;;;;4.65;2.28;;;3.40;99.90;;;;;;6164809;28;20049;-78
2023/03/11 01:01:33;;;;;;;5.43;1.85;;;3.30;99.90;;;;;;6166409;28;20059;-77
2023/03/11 01:04:35;;;;;;;2.17;1.98;;;3.30;99.90;;;;;;6166038;28;20141;-77
2023/03/11 01:07:36;;;;;;;2.13;1.92;;;3.30;99.90;;;;;;6164817;28;20513;-77
2023/03/11 01:10:39;;;;;;;2.08;1.88;;;3.30;99.90;;;;;;6165478;28;20043;-78
2023/03/11 01:13:41;;;;;;;6.70;1.63;;;3.30;99.90;;;;;;6165170;28;20058;-77
2023/03/11 01:16:43;;;;;;;4.07;1.70;;;3.20;99.90;;;;;;6163806;28;20409;-77
2023/03/11 01:19:45;;;;;;;2.75;1.50;;;3.20;99.90;;;;;;6163941;28;20422;-77
2023/03/11 01:22:46;;;;;;;2.28;1.70;;;3.20;99.90;;;;;;6161263;28;20093;-78
2023/03/11 01:25:49;;;;;;;1.63;0.88;;;3.20;99.90;;;;;;6187984;23;20062;-77
2023/03/11 01:28:51;;;;;;;1.38;1.13;;;3.20;99.90;;;;;;6167094;28;20051;-77
2023/03/11 01:31:53;;;;;;;2.85;1.35;;;3.10;99.90;;;;;;6165515;28;20042;-78
2023/03/11 01:36:04;;;;;;;1.15;1.05;;;3.10;99.90;;;;;;6202231;23;20045;-78
2023/03/11 01:42:32;;;;;;;1.85;1.45;;;3.00;99.90;;;;;;6155804;28;20117;-78
2023/03/11 01:46:04;;;;;;;1.95;1.65;;;3.00;99.90;;;;;;6156833;28;20532;-78
2023/03/11 01:49:19;;;;;;;2.00;1.00;;;3.00;99.90;;;;;;6146795;28;20209;-77
2023/03/11 01:52:30;;;;;;;5.95;1.85;;;2.90;99.90;;;;;;6140922;28;20062;-77
2023/03/11 01:55:52;;;;;;;3.88;1.67;;;2.80;99.90;;;;;;6139223;28;20148;-77
2023/03/11 01:58:55;;;;;;;2.20;0.80;;;2.80;99.90;;;;;;6152662;28;20055;-77
2023/03/11 02:02:04;;;;;;;5.65;1.58;;;2.80;99.90;;;;;;6155036;28;20684;-77
2023/03/11 02:05:09;;;;;;;2.13;1.48;;;2.80;99.90;;;;;;6149632;28;20043;-78
2023/03/11 02:08:11;;;;;;;2.70;1.30;;;2.80;99.90;;;;;;6154200;28;20058;-77
2023/03/11 02:11:16;;;;;;;1.95;1.45;;;2.70;99.90;;;;;;6154184;28;20494;-77
2023/03/11 02:14:18;;;;;;;3.63;1.45;;;2.60;99.90;;;;;;6152282;28;20051;-77
2023/03/11 02:17:21;;;;;;;1.98;1.33;;;2.60;99.90;;;;;;6149023;28;20050;-77
2023/03/11 02:20:35;;;;;;;3.92;1.50;;;2.60;99.90;;;;;;6154831;28;20046;-77
2023/03/11 02:23:43;;;;;;;2.53;1.15;;;2.50;99.90;;;;;;6150379;28;20039;-77
2023/03/11 02:26:55;;;;;;;3.08;1.48;;;2.50;99.90;;;;;;6155461;28;20050;-77
2023/03/11 02:29:59;;;;;;;2.17;1.23;;;2.40;99.90;;;;;;6152884;28;20060;-77
2023/03/11 02:33:02;;;;;;;2.85;1.52;;;2.40;99.90;;;;;;6154104;28;20059;-77
2023/03/11 02:36:04;;;;;;;2.63;1.70;;;2.30;99.90;;;;;;6167415;28;20815;-77
2023/03/11 02:39:07;;;;;;;1.83;1.20;;;2.20;99.90;;;;;;6181906;28;20050;-77
2023/03/11 02:42:14;;;;;;;3.88;1.50;;;2.20;99.90;;;;;;6178134;28;20073;-77
2023/03/11 02:45:20;;;;;;;4.13;1.45;;;2.20;99.90;;;;;;6173835;28;20050;-77
2023/03/11 02:48:23;;;;;;;5.30;1.55;;;2.10;99.90;;;;;;6175927;28;20647;-77
2023/03/11 02:51:24;;;;;;;3.85;1.42;;;2.10;99.90;;;;;;6178215;28;20046;-77
2023/03/11 02:54:26;;;;;;;5.72;1.50;;;2.00;99.90;;;;;;6175648;28;20054;-77
2023/03/11 02:57:29;;;;;;;3.53;2.10;;;1.90;99.90;;;;;;6176713;28;20050;-77
2023/03/11 03:00:32;;;;;;;7.70;1.58;;;1.90;99.90;;;;;;6179214;28;20055;-77
2023/03/11 03:03:34;;;;;;;2.20;1.80;;;1.80;99.90;;;;;;6176627;28;20047;-77
2023/03/11 03:06:36;;;;;;;1.70;1.60;;;1.80;99.90;;;;;;6178465;28;20074;-77
2023/03/11 03:09:38;;;;;;;2.58;2.03;;;1.70;99.90;;;;;;6176663;28;20567;-77
2023/03/11 03:12:41;;;;;;;3.10;2.13;;;1.70;99.90;;;;;;6173656;28;20062;-78
2023/03/11 03:15:43;;;;;;;1.90;1.20;;;1.60;99.90;;;;;;6180014;28;20556;-78
2023/03/11 03:18:44;;;;;;;5.37;2.77;;;1.60;99.90;;;;;;6179708;28;20452;-78
2023/03/11 03:21:46;;;;;;;4.03;1.87;;;1.60;99.90;;;;;;6177092;28;20398;-78
2023/03/11 03:24:48;;;;;;;5.60;2.83;;;1.60;99.90;;;;;;6177187;28;20054;-77
2023/03/11 03:27:51;;;;;;;1.53;1.40;;;1.60;99.90;;;;;;6178153;28;20050;-78
2023/03/11 03:30:53;;;;;;;5.47;2.40;;;1.50;99.90;;;;;;6180820;28;20090;-77
2023/03/11 03:33:54;;;;;;;4.67;2.00;;;1.40;99.90;;;;;;6179595;28;20497;-77
2023/03/11 03:36:56;;;;;;;4.93;1.87;;;1.40;99.90;;;;;;6175693;28;20065;-78
2023/03/11 03:39:58;;;;;;;1.93;1.77;;;1.40;99.90;;;;;;6175819;28;20728;-77
2023/03/11 03:43:01;;;;;;;3.57;1.90;;;1.30;99.90;;;;;;6175491;28;20047;-78
2023/03/11 03:46:04;;;;;;;2.03;1.70;;;1.20;99.90;;;;;;6174542;28;20050;-78
2023/03/11 03:49:06;;;;;;;2.10;1.87;;;1.20;99.90;;;;;;6178530;28;20039;-77
2023/03/11 03:52:09;;;;;;;4.17;2.43;;;1.10;99.90;;;;;;6176300;28;20074;-77
2023/03/11 03:55:11;;;;;;;4.27;1.50;;;1.00;99.90;;;;;;6181273;28;20424;-78
2023/03/11 03:58:14;;;;;;;5.33;1.97;;;1.00;99.90;;;;;;6176887;28;20117;-77
2023/03/11 04:01:15;;;;;;;3.10;2.30;;;0.90;99.90;;;;;;6178922;28;20417;-78
2023/03/11 04:04:17;;;;;;;7.90;2.57;;;0.80;99.90;;;;;;6176813;28;20051;-77
2023/03/11 04:07:19;;;;;;;4.53;2.20;;;0.80;99.90;;;;;;6177516;28;20177;-77
2023/03/11 04:10:21;;;;;;;8.67;1.90;;;0.70;99.90;;;;;;6177906;28;20054;-77
2023/03/11 04:13:24;;;;;;;2.63;1.70;;;0.70;99.90;;;;;;6187748;28;20058;-78
2023/03/11 04:16:25;;;;;;;5.57;2.00;;;0.60;99.90;;;;;;6185204;28;20042;-76
2023/03/11 04:19:27;;;;;;;9.47;2.40;;;0.60;99.90;;;;;;6181932;28;20057;-77
2023/03/11 04:22:29;;;;;;;2.37;1.50;;;0.50;99.90;;;;;;6177142;28;20050;-77
2023/03/11 04:25:30;;;;;;;5.70;2.07;;;0.50;99.90;;;;;;6196680;28;20038;-77
2023/03/11 04:28:33;;;;;;;1.87;1.63;;;0.50;99.90;;;;;;6200259;28;20041;-77
2023/03/11 04:31:35;;;;;;;3.63;1.87;;;0.40;99.90;;;;;;6202417;28;20061;-77
2023/03/11 04:34:37;;;;;;;5.43;1.67;;;0.40;99.90;;;;;;6201520;28;20088;-77
2023/03/11 04:37:39;;;;;;;3.70;3.17;;;0.40;99.90;;;;;;6206544;28;20037;-77
2023/03/11 04:40:40;;;;;;;11.03;2.23;;;0.30;99.90;;;;;;6204824;28;20060;-77
2023/03/11 04:43:43;;;;;;;8.57;1.60;;;0.30;99.90;;;;;;6200268;28;20058;-77
2023/03/11 04:46:45;;;;;;;4.97;2.07;;;0.20;99.90;;;;;;6197499;28;20065;-77
2023/03/11 04:49:47;;;;;;;4.40;2.10;;;0.20;99.90;;;;;;6202572;28;20042;-77
2023/03/11 04:52:48;;;;;;;7.40;2.40;;;0.10;99.90;;;;;;6197192;28;20060;-77
2023/03/11 04:55:52;;;;;;;7.87;2.20;;;0.10;99.90;;;;;;6202310;28;20065;-77
2023/03/11 04:58:55;;;;;;;3.57;1.80;;;0.10;99.90;;;;;;6198017;28;20082;-78
2023/03/11 05:01:56;;;;;;;3.40;1.83;;;0.00;99.90;;;;;;6198303;28;20046;-77
2023/03/11 05:04:58;;;;;;;8.77;2.60;;;-0.10;99.90;;;;;;6194464;28;20053;-77
2023/03/11 05:08:00;;;;;;;3.17;2.13;;;-0.10;99.90;;;;;;6199962;28;20038;-77
2023/03/11 05:11:01;;;;;;;4.90;1.77;;;-0.10;99.90;;;;;;6193353;28;20054;-77
2023/03/11 05:14:04;;;;;;;2.97;1.83;;;-0.10;99.90;;;;;;6197286;28;20412;-77
2023/03/11 05:17:06;;;;;;;9.80;1.97;;;-0.10;99.90;;;;;;6194376;28;20412;-77
2023/03/11 05:20:09;;;;;;;4.63;2.30;;;-0.10;99.90;;;;;;6199046;28;20054;-78
2023/03/11 05:23:11;;;;;;;3.57;1.47;;;-0.20;99.90;;;;;;6202647;28;20155;-77
2023/03/11 05:26:13;;;;;;;10.40;2.37;;;-0.20;99.90;;;;;;6194013;28;20173;-77
2023/03/11 05:29:16;;;;;;;1.97;1.70;;;-0.20;99.90;;;;;;6196276;28;20597;-78
2023/03/11 05:32:18;;;;;;;13.67;2.50;;;-0.20;99.90;;;;;;6196384;28;20050;-78
2023/03/11 05:35:20;;;;;;;6.33;2.10;;;-0.10;99.90;;;;;;6197388;28;20046;-77
2023/03/11 05:38:21;;;;;;;7.57;1.87;;;-0.10;99.90;;;;;;6200806;28;20101;-78
2023/03/11 05:41:23;;;;;;;3.37;1.57;;;-0.10;99.90;;;;;;6200615;28;20057;-78
2023/03/11 05:44:26;;;;;;;2.63;2.20;;;-0.10;99.90;;;;;;6197117;28;20073;-78
2023/03/11 05:47:28;;;;;;;3.80;3.40;;;-0.10;99.90;;;;;;6197675;28;20038;-78
2023/03/11 05:50:30;;;;;;;6.73;1.70;;;-0.10;99.90;;;;;;6198190;28;20056;-78
2023/03/11 05:53:31;;;;;;;3.00;1.93;;;-0.10;99.90;;;;;;6197110;28;20054;-78
2023/03/11 05:56:33;;;;;;;9.40;2.20;;;-0.10;99.90;;;;;;6201680;28;20049;-78
2023/03/11 05:59:36;;;;;;;3.80;2.07;;;-0.10;99.90;;;;;;6199633;28;20046;-78
2023/03/11 06:02:39;;;;;;;7.70;2.07;;;-0.10;99.90;;;;;;6200492;28;20120;-78
2023/03/11 06:05:45;;;;;;;6.33;1.90;;;-0.10;99.90;;;;;;6179613;28;20046;-78
2023/03/11 06:08:49;;;;;;;3.03;2.67;;;-0.10;99.90;;;;;;6196591;28;20053;-77
2023/03/11 06:11:50;;;;;;;8.10;2.10;;;-0.10;99.90;;;;;;6202515;28;20046;-78
2023/03/11 06:14:54;;;;;;;8.53;2.13;;;-0.10;99.90;;;;;;6199335;28;20053;-78
2023/03/11 06:17:56;;;;;;;8.13;3.63;;;-0.10;99.90;;;;;;6174341;28;20062;-77
2023/03/11 06:20:59;;;;;;;2.30;2.10;;;0.00;99.90;;;;;;6175529;28;20101;-78
2023/03/11 06:24:00;;;;;;;4.80;2.43;;;0.00;99.90;;;;;;6182220;28;20060;-78
2023/03/11 06:27:03;;;;;;;3.07;2.77;;;0.10;99.90;;;;;;6170825;28;20053;-78
2023/03/11 06:30:07;;;;;;;8.07;2.23;;;0.30;99.90;;;;;;6172807;28;20062;-78
2023/03/11 06:33:09;;;;;;;5.17;2.00;;;0.40;99.90;;;;;;6174464;28;20046;-78
2023/03/11 06:36:12;;;;;;;7.50;2.30;;;0.50;99.90;;;;;;6171842;28;20050;-78
2023/03/11 06:39:14;;;;;;;6.30;2.60;;;0.60;99.90;;;;;;6177318;28;20039;-78
2023/03/11 06:42:16;;;;;;;6.60;2.50;;;0.80;99.90;;;;;;6174844;28;20398;-78
2023/03/11 06:45:19;;;;;;;5.50;2.27;;;0.90;99.90;;;;;;6177684;28;20110;-78
2023/03/11 06:48:21;;;;;;;6.83;2.43;;;1.00;99.90;;;;;;6178860;28;20043;-78
2023/03/11 06:51:23;;;;;;;2.70;2.23;;;1.10;99.90;;;;;;6182910;28;20045;-78
2023/03/11 06:54:24;;;;;;;4.80;2.07;;;1.20;99.90;;;;;;6177922;28;20047;-78
2023/03/11 06:57:26;;;;;;;5.40;1.97;;;1.30;99.90;;;;;;6178534;28;20646;-78
2023/03/11 07:00:30;;;;;;;12.97;3.67;;;1.40;99.90;;;;;;6177182;28;20043;-77
2023/03/11 07:03:32;;;;;;;6.88;2.25;;;1.60;99.90;;;;;;6181544;28;20094;-78
2023/03/11 07:06:33;;;;;;;3.53;2.20;;;1.80;99.90;;;;;;6177567;28;20520;-77
2023/03/11 07:09:35;;;;;;;2.70;1.70;;;1.90;99.90;;;;;;6179452;28;20045;-77
2023/03/11 07:12:37;;;;;;;3.92;2.05;;;2.10;99.90;;;;;;6177653;28;20825;-77
2023/03/11 07:15:40;;;;;;;5.97;2.10;;;2.30;99.90;;;;;;6176132;28;20058;-77
2023/03/11 07:18:42;;;;;;;5.03;2.38;;;2.50;99.90;;;;;;6174815;28;20062;-77
2023/03/11 07:21:44;;;;;;;6.03;1.80;;;2.70;99.90;;;;;;6175078;28;20050;-78
2023/03/11 07:24:46;;;;;;;6.32;2.03;;;2.90;99.90;;;;;;6173268;28;20436;-78
2023/03/11 07:27:49;;;;;;;4.45;2.70;;;3.10;99.90;;;;;;6193286;23;20058;-77
2023/03/11 07:30:52;;;;;;;4.47;2.00;;;3.30;99.90;;;;;;6179303;28;20141;-77
2023/03/11 07:33:54;;;;;;;5.95;2.55;;;3.40;99.90;;;;;;6183012;28;20505;-77
2023/03/11 07:36:56;;;;;;;6.15;2.28;;;3.50;99.90;;;;;;6181238;28;20042;-75
2023/03/11 07:40:06;;;;;;;7.72;1.48;;;3.70;99.90;;;;;;6188305;28;20049;-75
2023/03/11 07:43:08;;;;;;;8.15;3.65;;;4.10;99.90;;;;;;6141808;28;20046;-75
2023/03/11 07:46:15;;;;;;;4.57;1.45;;;4.40;99.90;;;;;;6187719;28;20082;-75
2023/03/11 07:49:16;;;;;;;5.25;1.90;;;4.50;99.90;;;;;;6167151;28;20046;-78
2023/03/11 07:52:18;;;;;;;5.82;1.70;;;4.80;99.90;;;;;;6164158;28;20042;-77
2023/03/11 07:55:20;;;;;;;6.90;1.45;;;5.10;99.90;;;;;;6164234;28;20568;-78
2023/03/11 07:58:22;;;;;;;7.45;1.95;;;5.40;99.90;;;;;;6166008;28;20051;-77
2023/03/11 08:01:29;;;;;;;5.35;2.42;;;5.70;99.90;;;;;;6167651;28;20520;-77
2023/03/11 08:04:31;;;;;;;4.77;1.60;;;6.00;99.90;;;;;;6164983;28;20129;-77
2023/03/11 08:07:33;;;;;;;3.20;1.50;;;6.20;99.90;;;;;;6166362;28;20043;-77
2023/03/11 08:10:36;;;;;;;3.55;1.77;;;6.60;99.90;;;;;;6165900;28;20406;-78
2023/03/11 08:13:38;;;;;;;8.73;2.70;;;7.10;99.90;;;;;;6165779;28;20047;-78
2023/03/11 08:16:41;;;;;;;7.82;2.22;;;7.50;99.90;;;;;;6184994;28;20065;-78
2023/03/11 08:19:43;;;;;;;11.85;5.53;;;7.70;99.90;;;;;;6183326;28;20461;-78
2023/03/11 08:22:44;;;;;;;4.93;1.90;;;7.90;99.90;;;;;;6168903;28;20058;-78
2023/03/11 08:25:46;;;;;;;7.20;1.85;;;8.00;99.90;;;;;;6170870;28;20050;-77
2023/03/11 08:28:49;;;;;;;4.55;1.90;;;8.20;99.90;;;;;;6170940;28;20523;-78
2023/03/11 08:31:52;;;;;;;4.47;1.60;;;8.40;99.90;;;;;;6166887;28;20050;-78
2023/03/11 08:34:53;;;;;;;4.18;1.80;;;8.60;99.90;;;;;;6172360;28;20047;-77
2023/03/11 08:37:55;;;;;;;6.75;1.35;;;8.90;99.90;;;;;;6196585;28;20054;-78
2023/03/11 08:40:57;;;;;;;8.02;2.30;;;9.20;99.90;;;;;;6195633;28;20050;-78
2023/03/11 08:43:58;;;;;;;11.25;2.42;;;9.60;99.90;;;;;;6192171;28;20050;-79
2023/03/11 08:47:02;;;;;;;6.93;1.75;;;9.90;99.90;;;;;;6193109;28;20058;-77
2023/03/11 08:50:05;;;;;;;3.45;1.42;;;10.40;99.90;;;;;;6196281;28;20046;-78
2023/03/11 08:53:07;;;;;;;7.25;2.38;;;10.70;99.90;;;;;;6194494;28;20042;-79
2023/03/11 08:56:09;;;;;;;8.32;2.28;;;11.20;99.90;;;;;;6192446;28;20049;-78
2023/03/11 08:59:11;;;;;;;2.55;1.35;;;11.70;99.90;;;;;;6197400;28;21579;-79
2023/03/11 09:02:14;;;;;;;5.00;1.95;;;12.30;99.90;;;;;;6194897;28;20069;-78
2023/03/11 09:05:15;;;;;;;7.18;1.80;;;12.70;99.90;;;;;;6172508;28;20046;-78
2023/03/11 09:08:17;;;;;;;5.93;1.70;;;12.70;99.90;;;;;;6170064;28;20488;-78
2023/03/11 09:11:21;;;;;;;7.63;1.88;;;11.90;99.90;;;;;;6169807;28;20047;-78
2023/03/11 09:14:22;;;;;;;4.68;1.65;;;11.50;99.90;;;;;;6161615;28;20059;-77
2023/03/11 09:17:26;;;;;;;5.55;2.28;;;11.60;99.90;;;;;;6162644;28;20055;-77
2023/03/11 09:20:27;;;;;;;12.82;2.90;;;11.80;99.90;;;;;;6162641;28;20706;-77
2023/03/11 09:23:30;;;;;;;4.95;2.17;;;12.30;99.90;;;;;;6165924;28;20043;-78
2023/03/11 09:26:32;;;;;;;4.00;1.77;;;12.40;99.90;;;;;;6163414;28;20055;-78
2023/03/11 09:29:34;;;;;;;5.03;2.08;;;11.70;99.90;;;;;;6164592;28;20039;-77
2023/03/11 09:32:37;;;;;;;4.63;1.95;;;10.70;99.90;;;;;;6167240;28;20110;-77
2023/03/11 09:35:39;;;;;;;2.58;1.30;;;10.00;99.90;;;;;;6163763;28;20057;-78
2023/03/11 09:38:41;;;;;;;8.48;2.15;;;9.80;99.90;;;;;;6163489;28;20386;-77
2023/03/11 09:41:49;;;;;;;5.43;1.30;;;9.90;99.90;;;;;;6166869;28;20054;-77
2023/03/11 09:44:56;;;;;;;2.25;1.27;;;9.90;99.90;;;;;;6167161;28;20432;-77
2023/03/11 09:48:09;;;;;;;3.30;1.20;;;10.00;99.90;;;;;;6170793;28;20051;-77
2023/03/11 09:51:17;;;;;;;8.35;1.52;;;10.00;99.90;;;;;;6163026;28;20066;-77
2023/03/11 09:54:19;;;;;;;;;;;10.20;99.90;;;;;;6166910;28;20130;-80
2023/03/11 09:57:24;;;;;;;5.50;1.15;;;10.30;99.90;;;;;;6165731;28;20385;-78
2023/03/11 10:00:26;;;;;;;5.97;4.15;;;10.50;99.90;;;;;;6163616;28;20047;-78
2023/03/11 10:03:34;;;;;;;5.88;3.35;;;10.90;99.90;;;;;;6164092;28;20058;-77
2023/03/11 10:06:35;;;;;;;5.30;3.05;;;11.10;99.90;;;;;;6164614;28;20055;-77
2023/03/11 10:09:41;;;;;;;8.18;1.67;;;11.20;99.90;;;;;;6163420;28;20057;-78
2023/03/11 10:12:52;;;;;;;4.63;1.48;;;11.30;99.90;;;;;;6163643;28;20050;-77
2023/03/11 10:16:01;;;;;;;5.53;2.03;;;11.70;99.90;;;;;;6161943;28;20051;-77
2023/03/11 10:19:13;;;;;;;3.60;1.25;;;12.20;99.90;;;;;;6164600;28;20047;-78
2023/03/11 10:22:23;;;;;;;3.95;1.30;;;12.60;99.90;;;;;;6167953;28;20051;-77
2023/03/11 10:25:29;;;;;;;4.65;2.50;;;13.10;99.90;;;;;;6168676;28;20075;-78
2023/03/11 10:28:36;;;;;;;9.40;2.17;;;13.20;99.90;;;;;;6184148;28;20046;-80
2023/03/11 10:31:43;;;;;;;9.10;1.30;;;13.20;99.90;;;;;;6186031;28;20047;-78
2023/03/11 10:34:53;;;;;;;6.03;1.00;;;13.50;99.90;;;;;;6171412;28;20133;-78
2023/03/11 10:37:58;;;;;;;4.82;1.55;;;13.70;99.90;;;;;;6171734;28;20057;-78
2023/03/11 10:41:04;;;;;;;4.18;1.50;;;14.10;99.90;;;;;;6169920;28;20050;-78
2023/03/11 10:44:13;;;;;;;3.17;1.15;;;13.80;99.90;;;;;;6172742;28;20051;-78
2023/03/11 10:47:18;;;;;;;3.40;1.10;;;13.30;99.30;;;;;;6170295;28;20051;-77
2023/03/11 10:50:21;;;;;;;3.67;1.15;;;12.90;99.40;;;;;;6170155;28;20067;-78
2023/03/11 10:53:23;;;;;;;11.85;3.15;;;12.50;98.90;;;;;;6171715;28;20050;-79
2023/03/11 10:56:29;;;;;;;6.93;1.83;;;12.50;99.90;;;;;;6168481;28;20050;-77
2023/03/11 10:59:33;;;;;;;6.78;2.25;;;12.80;99.90;;;;;;6168943;28;20035;-77
2023/03/11 11:02:39;;;;;;;3.40;1.65;;;12.90;99.90;;;;;;6170044;28;20051;-78
2023/03/11 11:05:42;;;;;;;2.75;0.98;;;12.70;99.40;;;;;;6168306;28;20051;-77
2023/03/11 11:08:45;;;;;;;3.60;0.93;;;12.10;98.60;;;;;;6188328;28;20046;-78
2023/03/11 11:12:02;;;;;;;19.95;9.25;;;11.50;98.40;;;;;;6196965;28;20420;-77
2023/03/11 11:15:06;;;;;;;6.03;1.42;;;11.20;97.80;;;;;;6195052;28;20042;-79
2023/03/11 11:18:17;;;;;;;4.53;1.23;;;10.80;98.50;;;;;;6193336;28;20058;-78
2023/03/11 11:21:32;;;;;;;7.93;4.80;;;10.50;97.80;;;;;;6194758;28;20721;-78
2023/03/11 11:24:33;;;;;;;4.75;1.92;;;10.20;97.40;;;;;;6193723;28;20050;-78
2023/03/11 11:27:35;;;;;;;9.98;2.95;;;10.00;97.80;;;;;;6192879;28;20054;-78
2023/03/11 11:30:37;;;;;;;3.03;1.17;;;9.90;97.60;;;;;;6191925;28;20047;-78
2023/03/11 11:33:48;;;;;;;4.00;1.23;;;10.10;97.70;;;;;;6191392;28;20052;-78
2023/03/11 11:36:51;;;;;;;11.68;1.70;;;10.70;97.70;;;;;;6192523;28;20132;-78
2023/03/11 11:39:55;;;;;;;5.40;1.30;;;11.30;97.20;;;;;;6182748;28;20043;-78
2023/03/11 11:43:02;;;;;;;4.30;1.30;;;12.00;96.40;;;;;;6165562;28;20517;-78
2023/03/11 11:46:07;;;;;;;6.32;1.02;;;12.20;95.60;;;;;;6171103;28;20050;-78
2023/03/11 11:49:17;;;;;;;8.40;1.58;;;12.40;95.20;;;;;;6172773;28;20054;-78
2023/03/11 11:52:24;;;;;;;5.30;1.08;;;12.70;94.60;;;;;;6172236;28;20058;-79
2023/03/11 11:55:28;;;;;;;3.03;1.23;;;13.00;93.80;;;;;;6171010;28;20047;-79
2023/03/11 11:58:31;;;;;;;4.43;1.08;;;13.50;92.90;;;;;;6171885;28;20066;-79
2023/03/11 12:01:41;;;;;;;5.55;1.80;;;13.90;91.80;;;;;;6194359;28;20042;-78
2023/03/11 12:04:49;;;;;;;5.55;1.63;;;14.10;90.80;;;;;;6193478;28;20042;-78
2023/03/11 12:07:58;;;;;;;;;;;14.60;90.70;;;;;;6195669;28;20054;-80
2023/03/11 12:11:04;;;;;;;13.40;10.15;;;14.50;92.10;;;;;;6192558;28;19963;-78
2023/03/11 12:14:11;;;;;;;2.38;1.88;;;14.40;90.80;;;;;;6190565;28;20046;-77
2023/03/11 12:17:16;;;;;;;4.68;1.20;;;13.80;87.70;;;;;;6197059;28;20054;-78
2023/03/11 12:20:26;;;;;;;1.40;0.95;;;13.30;88.90;;;;;;6189030;28;20046;-77
2023/03/11 12:23:43;;;;;;;6.10;3.72;;;13.30;86.60;;;;;;6192876;28;20508;-78
2023/03/11 12:26:47;;;;;;;26.95;20.38;;;13.20;83.80;;;;;;6189993;28;20058;-78
2023/03/11 12:29:52;;;;;;;5.20;2.15;;;13.00;83.90;;;;;;6198765;28;20402;-78
2023/03/11 12:32:58;;;;;;;3.15;1.23;;;13.20;83.20;;;;;;6200787;28;20042;-78
2023/03/11 12:36:01;;;;;;;5.10;1.80;;;13.60;80.80;;;;;;6193677;28;20046;-78
2023/03/11 12:39:07;;;;;;;1.95;1.00;;;13.60;79.20;;;;;;6193052;28;20069;-78
2023/03/11 12:42:16;;;;;;;3.20;1.20;;;13.50;77.70;;;;;;6193507;28;20053;-78
2023/03/11 12:45:48;;;;;;;4.47;2.55;;;13.70;75.10;;;;;;6192112;28;20400;-79
2023/03/11 12:49:06;;;;;;;3.50;1.10;;;14.20;72.20;;;;;;6129108;28;20058;-78
2023/03/11 12:52:33;;;;;;;2.70;1.75;;;14.40;71.10;;;;;;6194697;28;20504;-78
2023/03/11 12:55:38;;;;;;;2.45;1.42;;;14.80;68.90;;;;;;6193242;28;20054;-79
2023/03/11 12:59:02;;;;;;;4.32;1.23;;;15.10;68.40;;;;;;6193996;28;20080;-78
2023/03/11 13:02:23;;;;;;;4.43;1.20;;;15.40;65.20;;;;;;6197055;28;20054;-78
2023/03/11 13:05:30;;;;;;;5.75;1.40;;;15.40;63.30;;;;;;6197840;28;20053;-80
2023/03/11 13:08:37;;;;;;;2.03;0.73;;;15.60;63.40;;;;;;6199387;28;20057;-78
2023/03/11 13:11:45;;;;;;;3.58;1.13;;;16.00;62.50;;;;;;6199680;28;20046;-78
2023/03/11 13:14:47;;;;;;;3.28;1.27;;;16.40;61.00;;;;;;6197449;28;20068;-78
2023/03/11 13:17:59;;;;;;;3.15;0.77;;;16.40;60.20;;;;;;6171234;28;20527;-78
2023/03/11 13:21:03;;;;;;;1.73;0.80;;;16.60;58.00;;;;;;6175356;28;20126;-78
2023/03/11 13:24:40;;;;;;;6.30;1.45;;;16.30;58.40;;;;;;6172804;28;20054;-78
2023/03/11 13:27:48;;;;;;;4.72;1.42;;;16.20;57.20;;;;;;6173476;28;20050;-78
2023/03/11 13:30:52;;;;;;;;;;;16.30;57.60;;;;;;6173363;28;20074;-78
2023/03/11 13:33:55;;;;;;;4.82;1.10;;;16.40;59.40;;;;;;6175072;28;19922;-78
2023/03/11 13:37:18;;;;;;;3.35;1.08;;;16.40;57.00;;;;;;6174129;28;20043;-78
2023/03/11 13:40:30;;;;;;;3.60;1.05;;;16.40;55.10;;;;;;6173142;28;20061;-78
2023/03/11 13:43:42;;;;;;;5.80;1.42;;;16.50;54.90;;;;;;6173222;28;20062;-78
2023/03/11 13:46:49;;;;;;;3.20;1.50;;;16.50;53.80;;;;;;6171986;28;20058;-78
2023/03/11 13:49:55;;;;;;;4.63;1.15;;;16.10;54.00;;;;;;6172919;28;20058;-78
2023/03/11 13:52:58;;;;;;;3.83;0.82;;;15.50;53.80;;;;;;6170705;28;20065;-78
2023/03/11 13:56:00;;;;;;;3.85;1.17;;;15.30;54.40;;;;;;6172086;28;20166;-78
2023/03/11 13:59:17;;;;;;;8.98;2.50;;;15.30;54.50;;;;;;6171375;28;20063;-78
2023/03/11 14:02:20;;;;;;;3.15;1.08;;;15.60;52.70;;;;;;6174324;28;20497;-79
2023/03/11 14:05:25;;;;;;;4.43;1.20;;;15.60;52.90;;;;;;6176193;28;20051;-79
2023/03/11 14:08:30;;;;;;;2.10;0.80;;;15.30;52.20;;;;;;6176945;28;20114;-79
2023/03/11 14:11:32;;;;;;;2.47;0.90;;;15.20;52.30;;;;;;6173890;28;20062;-79
2023/03/11 14:14:48;;;;;;;3.40;1.38;;;15.40;51.80;;;;;;6175192;28;20054;-79
2023/03/11 14:17:51;;;;;;;4.88;0.82;;;15.70;50.30;;;;;;6175278;28;20066;-80
2023/03/11 14:20:53;;;;;;;4.15;1.20;;;15.60;50.40;;;;;;6197038;28;20061;-78
2023/03/11 14:23:55;;;;;;;1.77;1.00;;;15.60;49.80;;;;;;6202457;28;20053;-79
2023/03/11 14:26:59;;;;;;;2.50;1.08;;;15.30;49.80;;;;;;6199658;28;20053;-81
2023/03/11 14:30:02;;;;;;;5.78;1.48;;;15.20;50.00;;;;;;6204218;28;20050;-79
2023/03/11 14:33:06;;;;;;;3.05;1.45;;;15.20;50.30;;;;;;6185598;28;20059;-79
2023/03/11 14:36:14;;;;;;;3.13;1.33;;;15.30;49.90;;;;;;6178109;28;20065;-79
2023/03/11 14:39:27;;;;;;;4.20;1.55;;;15.30;49.50;;;;;;6176472;28;20059;-79
2023/03/11 14:42:34;;;;;;;4.55;1.73;;;15.20;48.90;;;;;;6178207;28;20049;-78
2023/03/11 14:45:40;;;;;;;3.00;2.22;;;14.90;49.30;;;;;;6177091;28;20066;-79
2023/03/11 14:48:44;;;;;;;5.50;2.05;;;14.70;49.60;;;;;;6175246;28;20076;-79
2023/03/11 14:51:57;;;;;;;3.72;1.35;;;14.60;50.10;;;;;;6178867;28;20050;-79
2023/03/11 14:54:59;;;;;;;3.95;1.52;;;14.50;50.00;;;;;;6177838;28;20058;-79
2023/03/11 14:58:05;;;;;;;7.05;1.52;;;14.20;50.10;;;;;;6176552;28;20057;-79
2023/03/11 15:01:13;;;;;;;6.72;1.85;;;13.80;50.20;;;;;;6177872;28;20517;-79
2023/03/11 15:04:22;;;;;;;;;;;13.50;50.60;;;;;;6181571;28;20065;-79
2023/03/11 15:07:24;;;;;;;1.27;0.90;;;13.30;51.20;;;;;;6183745;28;19929;-79
2023/03/11 15:10:26;;;;;;;5.82;1.35;;;13.00;51.40;;;;;;6181250;28;20047;-78
2023/03/11 15:13:27;;;;;;;3.20;1.20;;;12.80;51.40;;;;;;6182674;28;20042;-79
2023/03/11 15:16:33;;;;;;;4.82;1.25;;;12.60;51.90;;;;;;6178545;28;20073;-79
2023/03/11 15:19:35;;;;;;;1.70;0.93;;;12.30;52.30;;;;;;6183251;28;20050;-79
2023/03/11 15:22:39;;;;;;;2.47;1.00;;;12.10;52.60;;;;;;6181012;28;20102;-78
2023/03/11 15:25:49;;;;;;;4.63;1.50;;;11.80;52.80;;;;;;6180949;28;20051;-78
2023/03/11 15:28:57;;;;;;;4.50;1.88;;;11.60;53.20;;;;;;6181115;28;20054;-79
2023/03/11 15:32:20;;;;;;;4.82;1.70;;;11.40;53.40;;;;;;6184740;28;20498;-79
2023/03/11 15:35:25;;;;;;;2.90;0.90;;;11.00;53.40;;;;;;6182648;28;20043;-79
2023/03/11 15:38:27;;;;;;;5.65;1.35;;;10.70;53.90;;;;;;6183474;28;20169;-79
2023/03/11 15:41:29;;;;;;;2.38;1.15;;;10.40;54.10;;;;;;6185620;28;20121;-79
2023/03/11 15:44:34;;;;;;;3.47;1.05;;;10.20;54.80;;;;;;6199957;28;20065;-80
2023/03/11 15:47:38;;;;;;;1.65;1.13;;;10.10;55.00;;;;;;6207571;28;20050;-80
2023/03/11 15:50:47;;;;;;;3.10;1.10;;;9.90;55.20;;;;;;6209946;28;20057;-79
2023/03/11 15:53:48;;;;;;;4.57;1.50;;;9.60;55.50;;;;;;6208030;28;20057;-79
2023/03/11 15:56:50;;;;;;;4.72;1.80;;;9.40;56.00;;;;;;6190922;28;20051;-79
2023/03/11 15:59:54;;;;;;;1.92;1.30;;;9.30;56.50;;;;;;6186605;28;20050;-80
2023/03/11 16:02:57;;;;;;;6.35;1.25;;;9.20;56.70;;;;;;6187701;28;20049;-79
2023/03/11 16:06:00;;;;;;;4.22;0.93;;;9.20;56.90;;;;;;6207411;28;20050;-79
2023/03/11 16:09:06;;;;;;;2.03;0.95;;;9.20;58.00;;;;;;6209796;28;20655;-79
2023/03/11 16:12:16;;;;;;;1.65;1.00;;;9.10;57.30;;;;;;6206690;28;20142;-79